JEI232 DAUA-DGAA
Flight info
| Callsign | JEI232 |
|---|---|
| Flight time | N/A |
| Altitude | 38000 |
| Route | ADR UJ41 BASID UM608 ROFER/N0429F400 UG859 BAKAB UA603 LITEX LITEX1B |
| Aircraft | LJ35/M-SGHRWXY/SB1 |
Departure
| Time | N/A |
|---|---|
| Airport | Touat-Cheikh Sidi Mohamed Belkebir Airport (DAUA) |
Arrival
| Time | 2026-04-21 11:22 |
|---|---|
| Airport | Kotoka International Airport (DGAA) |
| Time | Latitude | Longitude | Altitude | Speed | Heading |
|---|---|---|---|---|---|
| 2026-04-21 08:15 | 27.45452 | 0.44157 | 26682 ft | 407 kts | 168° |
| 2026-04-21 08:16 | 27.42753 | 0.45021 | 27258 ft | 410 kts | 169° |
| 2026-04-21 08:16 | 27.39985 | 0.45894 | 27814 ft | 414 kts | 169° |
| 2026-04-21 08:16 | 27.37197 | 0.46787 | 28360 ft | 418 kts | 169° |
| 2026-04-21 08:16 | 27.34387 | 0.47695 | 28888 ft | 422 kts | 169° |
| 2026-04-21 08:17 | 27.31546 | 0.48605 | 29404 ft | 426 kts | 169° |
| 2026-04-21 08:17 | 27.28685 | 0.49517 | 29893 ft | 430 kts | 169° |
| 2026-04-21 08:17 | 27.25800 | 0.50439 | 30302 ft | 433 kts | 169° |
| 2026-04-21 08:17 | 27.22889 | 0.51371 | 30702 ft | 436 kts | 169° |
| 2026-04-21 08:18 | 27.19962 | 0.52307 | 31089 ft | 439 kts | 169° |
| 2026-04-21 08:18 | 27.17016 | 0.53247 | 31458 ft | 442 kts | 169° |
| 2026-04-21 08:18 | 27.14039 | 0.54199 | 31872 ft | 445 kts | 169° |
| 2026-04-21 08:18 | 27.11048 | 0.55154 | 32240 ft | 448 kts | 169° |
| 2026-04-21 08:19 | 27.08042 | 0.56110 | 32595 ft | 451 kts | 169° |
| 2026-04-21 08:19 | 27.05055 | 0.57062 | 32919 ft | 454 kts | 169° |
| 2026-04-21 08:19 | 27.01997 | 0.58036 | 33232 ft | 456 kts | 169° |
| 2026-04-21 08:19 | 26.98941 | 0.59009 | 33516 ft | 459 kts | 169° |
| 2026-04-21 08:20 | 26.95861 | 0.59988 | 33782 ft | 461 kts | 169° |
| 2026-04-21 08:20 | 26.92775 | 0.60970 | 34057 ft | 461 kts | 169° |
| 2026-04-21 08:20 | 26.89692 | 0.61951 | 34433 ft | 458 kts | 169° |
| 2026-04-21 08:20 | 26.86643 | 0.62920 | 34902 ft | 453 kts | 169° |
| 2026-04-21 08:21 | 26.83616 | 0.63881 | 35377 ft | 448 kts | 169° |
| 2026-04-21 08:21 | 26.80627 | 0.64828 | 35833 ft | 445 kts | 169° |
| 2026-04-21 08:21 | 26.77662 | 0.65767 | 36277 ft | 442 kts | 169° |
| 2026-04-21 08:21 | 26.74706 | 0.66704 | 36713 ft | 439 kts | 169° |
| 2026-04-21 08:22 | 26.71774 | 0.67632 | 37136 ft | 437 kts | 170° |
| 2026-04-21 08:22 | 26.68856 | 0.68556 | 37549 ft | 435 kts | 170° |
| 2026-04-21 08:22 | 26.65945 | 0.69476 | 37825 ft | 437 kts | 170° |
| 2026-04-21 08:23 | 26.60041 | 0.71337 | 37824 ft | 449 kts | 169° |
| 2026-04-21 08:23 | 26.54011 | 0.73248 | 37822 ft | 451 kts | 170° |
| 2026-04-21 08:24 | 26.47963 | 0.75152 | 37830 ft | 451 kts | 170° |
| 2026-04-21 08:24 | 26.41926 | 0.77056 | 37823 ft | 451 kts | 170° |
| 2026-04-21 08:25 | 26.35888 | 0.78954 | 37817 ft | 451 kts | 170° |
| 2026-04-21 08:25 | 26.30868 | 0.80533 | 37820 ft | 451 kts | 170° |
| 2026-04-21 08:26 | 26.23843 | 0.82739 | 37823 ft | 450 kts | 171° |
| 2026-04-21 08:26 | 26.18793 | 0.84323 | 37823 ft | 450 kts | 171° |
| 2026-04-21 08:27 | 26.12764 | 0.86213 | 37831 ft | 449 kts | 171° |
| 2026-04-21 08:27 | 26.06783 | 0.88085 | 37831 ft | 449 kts | 171° |
| 2026-04-21 08:28 | 26.00754 | 0.89970 | 37829 ft | 449 kts | 171° |
| 2026-04-21 08:28 | 25.94731 | 0.91852 | 37807 ft | 449 kts | 171° |
| 2026-04-21 08:29 | 25.88714 | 0.93729 | 37822 ft | 449 kts | 171° |
| 2026-04-21 08:29 | 25.82697 | 0.95605 | 37827 ft | 449 kts | 171° |
| 2026-04-21 08:30 | 25.76724 | 0.97464 | 37829 ft | 448 kts | 171° |
| 2026-04-21 08:30 | 25.70706 | 0.99337 | 37836 ft | 449 kts | 171° |
| 2026-04-21 08:31 | 25.64696 | 1.01204 | 37831 ft | 449 kts | 171° |
| 2026-04-21 08:31 | 25.58686 | 1.03069 | 37838 ft | 448 kts | 172° |
| 2026-04-21 08:32 | 25.52674 | 1.04934 | 37839 ft | 448 kts | 172° |
| 2026-04-21 08:32 | 25.46662 | 1.06796 | 37842 ft | 449 kts | 172° |
| 2026-04-21 08:33 | 25.40688 | 1.08645 | 37840 ft | 449 kts | 172° |
| 2026-04-21 08:33 | 25.34677 | 1.10503 | 37848 ft | 449 kts | 172° |
| 2026-04-21 08:34 | 25.28662 | 1.12360 | 37841 ft | 448 kts | 172° |
| 2026-04-21 08:34 | 25.22656 | 1.14213 | 37845 ft | 448 kts | 172° |
| 2026-04-21 08:35 | 25.16652 | 1.16063 | 37850 ft | 448 kts | 172° |
| 2026-04-21 08:35 | 25.10641 | 1.17914 | 37853 ft | 449 kts | 172° |
| 2026-04-21 08:36 | 25.04625 | 1.19764 | 37850 ft | 449 kts | 172° |
| 2026-04-21 08:36 | 24.98610 | 1.21612 | 37855 ft | 448 kts | 172° |
| 2026-04-21 08:37 | 24.92596 | 1.23457 | 37850 ft | 449 kts | 172° |
| 2026-04-21 08:37 | 24.86567 | 1.25307 | 37850 ft | 449 kts | 172° |
| 2026-04-21 08:38 | 24.80545 | 1.27151 | 37847 ft | 449 kts | 172° |
| 2026-04-21 08:38 | 24.74520 | 1.28994 | 37858 ft | 450 kts | 172° |
| 2026-04-21 08:39 | 24.68523 | 1.30827 | 37859 ft | 450 kts | 172° |
| 2026-04-21 08:39 | 24.62484 | 1.32672 | 37858 ft | 450 kts | 172° |
| 2026-04-21 08:40 | 24.56448 | 1.34513 | 37861 ft | 450 kts | 172° |
| 2026-04-21 08:40 | 24.50415 | 1.36352 | 37861 ft | 450 kts | 172° |
| 2026-04-21 08:41 | 24.44376 | 1.38190 | 37863 ft | 450 kts | 172° |
| 2026-04-21 08:41 | 24.38379 | 1.40014 | 37862 ft | 450 kts | 172° |
| 2026-04-21 08:42 | 24.32347 | 1.41847 | 37861 ft | 450 kts | 172° |
| 2026-04-21 08:42 | 24.26307 | 1.43680 | 37862 ft | 450 kts | 172° |
| 2026-04-21 08:43 | 24.20266 | 1.45512 | 37868 ft | 450 kts | 172° |
| 2026-04-21 08:43 | 24.14227 | 1.47342 | 37868 ft | 450 kts | 172° |
| 2026-04-21 08:44 | 24.08186 | 1.49170 | 37871 ft | 450 kts | 172° |
| 2026-04-21 08:44 | 24.02150 | 1.50995 | 37872 ft | 450 kts | 172° |
| 2026-04-21 08:45 | 23.96117 | 1.52818 | 37854 ft | 450 kts | 172° |
| 2026-04-21 08:45 | 23.90084 | 1.54638 | 37877 ft | 449 kts | 172° |
| 2026-04-21 08:46 | 23.84098 | 1.56443 | 37872 ft | 449 kts | 172° |
| 2026-04-21 08:46 | 23.78068 | 1.58259 | 37874 ft | 449 kts | 172° |
| 2026-04-21 08:47 | 23.72038 | 1.60074 | 37879 ft | 449 kts | 172° |
| 2026-04-21 08:47 | 23.66017 | 1.61883 | 37877 ft | 449 kts | 172° |
| 2026-04-21 08:48 | 23.59996 | 1.63692 | 37876 ft | 449 kts | 172° |
| 2026-04-21 08:48 | 23.53974 | 1.65499 | 37877 ft | 449 kts | 172° |
| 2026-04-21 08:49 | 23.47969 | 1.66840 | 37875 ft | 435 kts | 185° |
| 2026-04-21 08:49 | 23.42083 | 1.66168 | 37875 ft | 419 kts | 200° |
| 2026-04-21 08:50 | 23.36389 | 1.64758 | 37877 ft | 420 kts | 200° |
| 2026-04-21 08:50 | 23.30681 | 1.63352 | 37878 ft | 420 kts | 200° |
| 2026-04-21 08:51 | 23.24973 | 1.61945 | 37880 ft | 420 kts | 200° |
| 2026-04-21 08:51 | 23.19304 | 1.60551 | 37881 ft | 420 kts | 200° |
| 2026-04-21 08:52 | 23.13595 | 1.59146 | 37878 ft | 420 kts | 200° |
| 2026-04-21 08:52 | 23.07893 | 1.57746 | 37877 ft | 420 kts | 200° |
| 2026-04-21 08:53 | 23.02193 | 1.56347 | 37873 ft | 420 kts | 200° |
| 2026-04-21 08:53 | 22.96482 | 1.54947 | 37873 ft | 420 kts | 200° |
| 2026-04-21 08:54 | 22.90781 | 1.53550 | 37873 ft | 420 kts | 200° |
| 2026-04-21 08:54 | 22.85082 | 1.52155 | 37886 ft | 420 kts | 200° |
| 2026-04-21 08:55 | 22.79360 | 1.50755 | 37886 ft | 421 kts | 200° |
| 2026-04-21 08:55 | 22.73651 | 1.49360 | 37879 ft | 420 kts | 200° |
| 2026-04-21 08:56 | 22.67943 | 1.47966 | 37877 ft | 420 kts | 200° |
| 2026-04-21 08:56 | 22.62275 | 1.46584 | 37877 ft | 420 kts | 200° |
| 2026-04-21 08:57 | 22.56567 | 1.45192 | 37878 ft | 420 kts | 200° |
| 2026-04-21 08:57 | 22.50859 | 1.43802 | 37879 ft | 420 kts | 200° |
| 2026-04-21 08:58 | 22.45151 | 1.42413 | 37879 ft | 420 kts | 200° |
| 2026-04-21 08:58 | 22.39455 | 1.41028 | 37881 ft | 419 kts | 200° |
| 2026-04-21 08:59 | 22.33758 | 1.39644 | 37881 ft | 419 kts | 200° |
| 2026-04-21 08:59 | 22.28064 | 1.38262 | 37883 ft | 419 kts | 200° |
| 2026-04-21 09:00 | 22.22401 | 1.36888 | 37887 ft | 419 kts | 200° |
| 2026-04-21 09:00 | 22.16710 | 1.35509 | 37886 ft | 419 kts | 200° |
| 2026-04-21 09:01 | 22.11019 | 1.34132 | 37882 ft | 419 kts | 201° |
| 2026-04-21 09:01 | 22.05325 | 1.32753 | 37889 ft | 419 kts | 201° |
| 2026-04-21 09:02 | 21.99627 | 1.31377 | 37884 ft | 420 kts | 201° |
| 2026-04-21 09:02 | 21.93921 | 1.29998 | 37884 ft | 420 kts | 201° |
| 2026-04-21 09:03 | 21.85356 | 1.27932 | 37885 ft | 420 kts | 201° |
| 2026-04-21 09:03 | 21.79689 | 1.26566 | 37885 ft | 420 kts | 201° |
| 2026-04-21 09:04 | 21.73991 | 1.25194 | 37891 ft | 420 kts | 201° |
| 2026-04-21 09:04 | 21.68287 | 1.23821 | 37891 ft | 420 kts | 201° |
| 2026-04-21 09:05 | 21.62584 | 1.22450 | 37889 ft | 420 kts | 201° |
| 2026-04-21 09:05 | 21.56877 | 1.21078 | 37887 ft | 420 kts | 201° |
| 2026-04-21 09:06 | 21.51174 | 1.19709 | 37890 ft | 420 kts | 201° |
| 2026-04-21 09:06 | 21.45464 | 1.18340 | 37890 ft | 420 kts | 201° |
| 2026-04-21 09:07 | 21.39757 | 1.16972 | 37896 ft | 420 kts | 201° |
| 2026-04-21 09:07 | 21.34047 | 1.15605 | 37896 ft | 420 kts | 201° |
| 2026-04-21 09:08 | 21.28371 | 1.14247 | 37907 ft | 420 kts | 201° |
| 2026-04-21 09:08 | 21.22654 | 1.12879 | 37910 ft | 421 kts | 201° |
| 2026-04-21 09:09 | 21.16939 | 1.11514 | 37910 ft | 421 kts | 201° |
| 2026-04-21 09:09 | 21.11221 | 1.10149 | 37900 ft | 421 kts | 202° |
| 2026-04-21 09:10 | 21.05503 | 1.08784 | 37894 ft | 421 kts | 202° |
| 2026-04-21 09:10 | 20.99781 | 1.07422 | 37894 ft | 421 kts | 202° |
| 2026-04-21 09:11 | 20.94059 | 1.06058 | 37897 ft | 421 kts | 202° |
| 2026-04-21 09:11 | 20.88339 | 1.04697 | 37897 ft | 421 kts | 202° |
| 2026-04-21 09:12 | 20.82614 | 1.03336 | 37898 ft | 421 kts | 202° |
| 2026-04-21 09:12 | 20.76925 | 1.01985 | 37899 ft | 421 kts | 202° |
| 2026-04-21 09:13 | 20.71198 | 1.00624 | 37899 ft | 422 kts | 202° |
| 2026-04-21 09:13 | 20.65460 | 0.99263 | 37899 ft | 422 kts | 202° |
| 2026-04-21 09:14 | 20.59726 | 0.97904 | 37897 ft | 422 kts | 202° |
| 2026-04-21 09:14 | 20.53986 | 0.96544 | 37897 ft | 422 kts | 202° |
| 2026-04-21 09:15 | 20.49215 | 0.95415 | 37898 ft | 422 kts | 202° |
| 2026-04-21 09:15 | 20.43482 | 0.94060 | 37901 ft | 422 kts | 202° |
| 2026-04-21 09:16 | 20.37751 | 0.92704 | 37900 ft | 422 kts | 203° |
| 2026-04-21 09:16 | 20.32015 | 0.91350 | 37900 ft | 422 kts | 202° |
| 2026-04-21 09:17 | 20.26270 | 0.89994 | 37892 ft | 422 kts | 202° |
| 2026-04-21 09:17 | 20.20531 | 0.88640 | 37893 ft | 423 kts | 202° |
| 2026-04-21 09:18 | 20.14786 | 0.87287 | 37897 ft | 422 kts | 202° |
| 2026-04-21 09:18 | 20.09086 | 0.85946 | 37894 ft | 422 kts | 203° |
| 2026-04-21 09:19 | 20.03351 | 0.84595 | 37891 ft | 422 kts | 203° |
| 2026-04-21 09:19 | 19.97610 | 0.83246 | 37891 ft | 422 kts | 203° |
| 2026-04-21 09:20 | 19.91871 | 0.81897 | 37894 ft | 422 kts | 203° |
| 2026-04-21 09:20 | 19.86131 | 0.80550 | 37895 ft | 422 kts | 203° |
| 2026-04-21 09:21 | 19.80395 | 0.79204 | 37892 ft | 422 kts | 203° |
| 2026-04-21 09:21 | 19.74659 | 0.77860 | 37896 ft | 422 kts | 204° |
| 2026-04-21 09:22 | 19.68917 | 0.76514 | 37893 ft | 423 kts | 203° |
| 2026-04-21 09:22 | 19.63165 | 0.75168 | 37914 ft | 424 kts | 204° |
| 2026-04-21 09:23 | 19.57442 | 0.73830 | 37910 ft | 424 kts | 204° |
| 2026-04-21 09:23 | 19.51655 | 0.72477 | 37912 ft | 425 kts | 204° |
| 2026-04-21 09:24 | 19.45877 | 0.71128 | 37902 ft | 425 kts | 204° |
| 2026-04-21 09:24 | 19.40143 | 0.69789 | 37897 ft | 425 kts | 204° |
| 2026-04-21 09:25 | 19.34366 | 0.68442 | 37896 ft | 425 kts | 204° |
| 2026-04-21 09:25 | 19.28590 | 0.67096 | 37896 ft | 425 kts | 204° |
| 2026-04-21 09:26 | 19.22806 | 0.65749 | 37905 ft | 426 kts | 204° |
| 2026-04-21 09:26 | 19.17018 | 0.64402 | 37906 ft | 426 kts | 204° |
| 2026-04-21 09:27 | 19.11222 | 0.63054 | 37877 ft | 425 kts | 204° |
| 2026-04-21 09:27 | 19.05436 | 0.61710 | 37903 ft | 426 kts | 204° |
| 2026-04-21 09:28 | 18.99687 | 0.60375 | 37900 ft | 426 kts | 204° |
| 2026-04-21 09:28 | 18.93892 | 0.59031 | 37903 ft | 426 kts | 204° |
| 2026-04-21 09:29 | 18.88106 | 0.57689 | 37900 ft | 426 kts | 204° |
| 2026-04-21 09:29 | 18.82307 | 0.56345 | 37906 ft | 426 kts | 204° |
| 2026-04-21 09:30 | 18.76514 | 0.55004 | 37904 ft | 426 kts | 204° |
| 2026-04-21 09:30 | 18.70711 | 0.53659 | 37906 ft | 427 kts | 204° |
| 2026-04-21 09:31 | 18.64936 | 0.52326 | 37907 ft | 428 kts | 204° |
| 2026-04-21 09:31 | 18.59116 | 0.50980 | 37908 ft | 429 kts | 204° |
| 2026-04-21 09:32 | 18.53282 | 0.49634 | 37906 ft | 429 kts | 204° |
| 2026-04-21 09:32 | 18.47457 | 0.48289 | 37907 ft | 429 kts | 204° |
| 2026-04-21 09:33 | 18.41621 | 0.46944 | 37894 ft | 429 kts | 205° |
| 2026-04-21 09:33 | 18.35761 | 0.45591 | 37903 ft | 432 kts | 205° |
| 2026-04-21 09:34 | 18.29873 | 0.44238 | 37905 ft | 434 kts | 205° |
| 2026-04-21 09:34 | 18.23972 | 0.42879 | 37909 ft | 434 kts | 205° |
| 2026-04-21 09:35 | 18.18063 | 0.41521 | 37911 ft | 435 kts | 205° |
| 2026-04-21 09:35 | 18.12184 | 0.40170 | 37907 ft | 435 kts | 204° |
| 2026-04-21 09:36 | 18.06260 | 0.38810 | 37903 ft | 435 kts | 204° |
| 2026-04-21 09:36 | 18.00335 | 0.37450 | 37897 ft | 435 kts | 205° |
| 2026-04-21 09:37 | 17.94410 | 0.36091 | 37899 ft | 436 kts | 205° |
| 2026-04-21 09:37 | 17.88476 | 0.34732 | 37900 ft | 436 kts | 204° |
| 2026-04-21 09:38 | 17.82537 | 0.33372 | 37892 ft | 436 kts | 204° |
| 2026-04-21 09:38 | 17.76638 | 0.32022 | 37893 ft | 437 kts | 204° |
| 2026-04-21 09:39 | 17.70689 | 0.30661 | 37887 ft | 438 kts | 205° |
| 2026-04-21 09:39 | 17.64722 | 0.29297 | 37890 ft | 440 kts | 205° |
| 2026-04-21 09:40 | 17.58739 | 0.27931 | 37891 ft | 440 kts | 205° |
| 2026-04-21 09:40 | 17.52749 | 0.26565 | 37892 ft | 441 kts | 204° |
| 2026-04-21 09:41 | 17.46747 | 0.25196 | 37894 ft | 441 kts | 204° |
| 2026-04-21 09:41 | 17.40745 | 0.23828 | 37893 ft | 441 kts | 204° |
| 2026-04-21 09:42 | 17.34767 | 0.22465 | 37880 ft | 443 kts | 204° |
| 2026-04-21 09:42 | 17.28726 | 0.21091 | 37884 ft | 445 kts | 204° |
| 2026-04-21 09:43 | 17.22661 | 0.19712 | 37887 ft | 446 kts | 204° |
| 2026-04-21 09:43 | 17.16583 | 0.18330 | 37894 ft | 447 kts | 204° |
| 2026-04-21 09:44 | 17.10496 | 0.16948 | 37888 ft | 447 kts | 204° |
| 2026-04-21 09:44 | 17.04410 | 0.15566 | 37878 ft | 448 kts | 204° |
| 2026-04-21 09:45 | 16.98305 | 0.14180 | 37881 ft | 450 kts | 204° |
| 2026-04-21 09:45 | 16.92165 | 0.12790 | 37886 ft | 452 kts | 204° |
| 2026-04-21 09:46 | 16.86048 | 0.11403 | 37891 ft | 453 kts | 204° |
| 2026-04-21 09:46 | 16.79879 | 0.10007 | 37888 ft | 453 kts | 204° |
| 2026-04-21 09:47 | 16.73709 | 0.08612 | 37886 ft | 453 kts | 204° |
| 2026-04-21 09:47 | 16.67549 | 0.07220 | 37884 ft | 450 kts | 203° |
| 2026-04-21 09:48 | 16.61443 | 0.05840 | 37888 ft | 448 kts | 203° |
| 2026-04-21 09:48 | 16.55360 | 0.04466 | 37892 ft | 447 kts | 203° |
| 2026-04-21 09:49 | 16.49285 | 0.03095 | 37888 ft | 446 kts | 204° |
| 2026-04-21 09:49 | 16.43216 | 0.01726 | 37883 ft | 446 kts | 203° |
| 2026-04-21 09:50 | 16.39196 | 0.00820 | 37887 ft | 446 kts | 203° |
| 2026-04-21 09:50 | 16.31121 | -0.00997 | 37903 ft | 444 kts | 202° |
| 2026-04-21 09:51 | 16.25074 | -0.02353 | 37904 ft | 445 kts | 201° |
| 2026-04-21 09:51 | 16.21946 | -0.02676 | 37905 ft | 459 kts | 191° |
| 2026-04-21 09:51 | 16.18737 | -0.02697 | 37908 ft | 460 kts | 190° |
| 2026-04-21 09:52 | 16.12334 | -0.02745 | 37892 ft | 460 kts | 191° |
| 2026-04-21 09:52 | 16.05928 | -0.02805 | 37896 ft | 460 kts | 190° |
| 2026-04-21 09:53 | 15.99518 | -0.02857 | 37863 ft | 460 kts | 191° |
| 2026-04-21 09:53 | 15.93130 | -0.02912 | 37890 ft | 459 kts | 190° |
| 2026-04-21 09:54 | 15.86741 | -0.02967 | 37890 ft | 459 kts | 190° |
| 2026-04-21 09:54 | 15.80398 | -0.03020 | 37890 ft | 458 kts | 190° |
| 2026-04-21 09:55 | 15.74009 | -0.03077 | 37891 ft | 459 kts | 190° |
| 2026-04-21 09:55 | 15.67625 | -0.03130 | 37891 ft | 459 kts | 190° |
| 2026-04-21 09:56 | 15.61234 | -0.03185 | 37889 ft | 458 kts | 189° |
| 2026-04-21 09:56 | 15.54906 | -0.03239 | 37890 ft | 458 kts | 189° |
| 2026-04-21 09:57 | 15.48535 | -0.03293 | 37884 ft | 457 kts | 189° |
| 2026-04-21 09:57 | 15.42172 | -0.03348 | 37884 ft | 457 kts | 189° |
| 2026-04-21 09:58 | 15.35807 | -0.03401 | 37878 ft | 457 kts | 189° |
| 2026-04-21 09:58 | 15.29443 | -0.03456 | 37879 ft | 457 kts | 189° |
| 2026-04-21 09:59 | 15.23125 | -0.03509 | 37879 ft | 456 kts | 189° |
| 2026-04-21 09:59 | 15.16739 | -0.03564 | 37876 ft | 456 kts | 189° |
| 2026-04-21 10:00 | 15.10441 | -0.03617 | 37875 ft | 456 kts | 189° |
| 2026-04-21 10:00 | 15.04102 | -0.03671 | 37872 ft | 456 kts | 189° |
| 2026-04-21 10:01 | 14.97746 | -0.03725 | 37873 ft | 456 kts | 189° |
| 2026-04-21 10:01 | 14.91406 | -0.03779 | 37860 ft | 455 kts | 188° |
| 2026-04-21 10:02 | 14.81950 | -0.03859 | 37873 ft | 455 kts | 188° |
| 2026-04-21 10:03 | 14.75610 | -0.03912 | 37872 ft | 455 kts | 188° |
| 2026-04-21 10:03 | 14.69285 | -0.03966 | 37873 ft | 455 kts | 188° |
| 2026-04-21 10:04 | 14.62944 | -0.04020 | 37870 ft | 455 kts | 188° |
| 2026-04-21 10:04 | 14.57676 | -0.04064 | 37869 ft | 455 kts | 188° |
| 2026-04-21 10:05 | 14.51350 | -0.04118 | 37870 ft | 455 kts | 188° |
| 2026-04-21 10:05 | 14.45012 | -0.04171 | 37870 ft | 455 kts | 188° |
| 2026-04-21 10:06 | 14.38676 | -0.04224 | 37870 ft | 455 kts | 188° |
| 2026-04-21 10:06 | 14.32386 | -0.04277 | 37870 ft | 455 kts | 188° |
| 2026-04-21 10:07 | 14.26050 | -0.04330 | 37870 ft | 455 kts | 188° |
| 2026-04-21 10:07 | 14.19722 | -0.04384 | 37870 ft | 455 kts | 188° |
| 2026-04-21 10:08 | 14.13374 | -0.04438 | 37872 ft | 456 kts | 188° |
| 2026-04-21 10:08 | 14.07005 | -0.04491 | 37875 ft | 458 kts | 188° |
| 2026-04-21 10:09 | 14.00638 | -0.04545 | 37878 ft | 458 kts | 188° |
| 2026-04-21 10:09 | 13.94307 | -0.04598 | 37878 ft | 458 kts | 188° |
| 2026-04-21 10:10 | 13.87921 | -0.04651 | 37879 ft | 458 kts | 188° |
| 2026-04-21 10:10 | 13.81536 | -0.04705 | 37878 ft | 459 kts | 188° |
| 2026-04-21 10:11 | 13.75131 | -0.04759 | 37881 ft | 459 kts | 188° |
| 2026-04-21 10:11 | 13.68729 | -0.04812 | 37884 ft | 459 kts | 188° |
| 2026-04-21 10:12 | 13.62370 | -0.04865 | 37890 ft | 460 kts | 188° |
| 2026-04-21 10:12 | 13.55966 | -0.04919 | 37891 ft | 460 kts | 188° |
| 2026-04-21 10:13 | 13.49563 | -0.04973 | 37890 ft | 460 kts | 188° |
| 2026-04-21 10:13 | 13.43152 | -0.05027 | 37883 ft | 461 kts | 188° |
| 2026-04-21 10:14 | 13.36722 | -0.05080 | 37883 ft | 462 kts | 188° |
| 2026-04-21 10:14 | 13.30328 | -0.05134 | 37889 ft | 463 kts | 188° |
| 2026-04-21 10:15 | 13.23887 | -0.05187 | 37894 ft | 463 kts | 188° |
| 2026-04-21 10:15 | 13.17447 | -0.05241 | 37894 ft | 463 kts | 188° |
| 2026-04-21 10:16 | 13.10998 | -0.05295 | 37891 ft | 462 kts | 188° |
| 2026-04-21 10:16 | 13.04567 | -0.05348 | 37900 ft | 462 kts | 188° |
| 2026-04-21 10:17 | 12.98123 | -0.05402 | 37894 ft | 462 kts | 188° |
| 2026-04-21 10:17 | 12.91682 | -0.05456 | 37894 ft | 462 kts | 188° |
| 2026-04-21 10:18 | 12.85251 | -0.05510 | 37897 ft | 462 kts | 188° |
| 2026-04-21 10:18 | 12.78858 | -0.05563 | 37898 ft | 462 kts | 188° |
| 2026-04-21 10:19 | 12.72426 | -0.05617 | 37894 ft | 463 kts | 187° |
| 2026-04-21 10:19 | 12.65976 | -0.05670 | 37894 ft | 463 kts | 187° |
| 2026-04-21 10:20 | 12.59530 | -0.05723 | 37894 ft | 463 kts | 187° |
| 2026-04-21 10:20 | 12.53082 | -0.05777 | 37895 ft | 463 kts | 187° |
| 2026-04-21 10:21 | 12.46632 | -0.05830 | 37896 ft | 463 kts | 187° |
| 2026-04-21 10:21 | 12.40223 | -0.05884 | 37889 ft | 463 kts | 186° |
| 2026-04-21 10:22 | 12.33786 | -0.05937 | 37895 ft | 462 kts | 186° |
| 2026-04-21 10:22 | 12.27347 | -0.05990 | 37896 ft | 462 kts | 186° |
| 2026-04-21 10:23 | 12.20919 | -0.06044 | 37895 ft | 462 kts | 186° |
| 2026-04-21 10:23 | 12.14488 | -0.06097 | 37898 ft | 462 kts | 186° |
| 2026-04-21 10:24 | 12.08056 | -0.06150 | 37895 ft | 462 kts | 186° |
| 2026-04-21 10:24 | 12.01631 | -0.06203 | 37895 ft | 461 kts | 186° |
| 2026-04-21 10:25 | 11.95207 | -0.06256 | 37896 ft | 460 kts | 186° |
| 2026-04-21 10:25 | 11.88849 | -0.06309 | 37897 ft | 459 kts | 186° |
| 2026-04-21 10:26 | 11.82451 | -0.06361 | 37896 ft | 459 kts | 186° |
| 2026-04-21 10:26 | 11.76056 | -0.06415 | 37895 ft | 459 kts | 186° |
| 2026-04-21 10:27 | 11.69664 | -0.06467 | 37890 ft | 459 kts | 186° |
| 2026-04-21 10:27 | 11.63268 | -0.06521 | 37886 ft | 460 kts | 186° |
| 2026-04-21 10:28 | 11.56883 | -0.06573 | 37885 ft | 462 kts | 186° |
| 2026-04-21 10:28 | 11.50443 | -0.06626 | 37885 ft | 463 kts | 186° |
| 2026-04-21 10:29 | 11.43986 | -0.06679 | 37881 ft | 464 kts | 186° |
| 2026-04-21 10:29 | 11.37526 | -0.06732 | 37882 ft | 464 kts | 186° |
| 2026-04-21 10:30 | 11.31063 | -0.06785 | 37882 ft | 464 kts | 186° |
| 2026-04-21 10:30 | 11.24622 | -0.06838 | 37874 ft | 462 kts | 185° |
| 2026-04-21 10:31 | 11.18197 | -0.06891 | 37875 ft | 461 kts | 185° |
| 2026-04-21 10:31 | 11.11821 | -0.06943 | 37875 ft | 461 kts | 185° |
| 2026-04-21 10:32 | 11.05412 | -0.06996 | 37873 ft | 461 kts | 185° |
| 2026-04-21 10:32 | 10.98998 | -0.07048 | 37869 ft | 461 kts | 185° |
| 2026-04-21 10:33 | 10.92590 | -0.07102 | 37873 ft | 460 kts | 185° |
| 2026-04-21 10:33 | 10.86181 | -0.07153 | 37868 ft | 460 kts | 185° |
| 2026-04-21 10:34 | 10.79769 | -0.07207 | 37871 ft | 460 kts | 185° |
| 2026-04-21 10:34 | 10.73399 | -0.07259 | 37871 ft | 460 kts | 185° |
| 2026-04-21 10:35 | 10.66993 | -0.07311 | 37871 ft | 460 kts | 185° |
| 2026-04-21 10:35 | 10.60587 | -0.07364 | 37871 ft | 460 kts | 185° |
| 2026-04-21 10:36 | 10.54188 | -0.07416 | 37870 ft | 459 kts | 185° |
| 2026-04-21 10:36 | 10.47795 | -0.07468 | 37870 ft | 459 kts | 185° |
| 2026-04-21 10:37 | 10.41441 | -0.07520 | 37868 ft | 459 kts | 185° |
| 2026-04-21 10:37 | 10.35053 | -0.07572 | 37868 ft | 459 kts | 185° |
| 2026-04-21 10:38 | 10.28668 | -0.07625 | 37868 ft | 459 kts | 185° |
| 2026-04-21 10:38 | 10.22276 | -0.07677 | 37866 ft | 459 kts | 185° |
| 2026-04-21 10:39 | 10.15889 | -0.07730 | 37864 ft | 459 kts | 184° |
| 2026-04-21 10:39 | 10.09509 | -0.07781 | 37862 ft | 458 kts | 184° |
| 2026-04-21 10:40 | 10.03127 | -0.07834 | 37859 ft | 458 kts | 184° |
| 2026-04-21 10:40 | 9.96742 | -0.07886 | 37859 ft | 458 kts | 184° |
| 2026-04-21 10:41 | 9.90369 | -0.07937 | 37858 ft | 458 kts | 184° |
| 2026-04-21 10:41 | 9.83997 | -0.07990 | 37858 ft | 458 kts | 184° |
| 2026-04-21 10:42 | 9.77629 | -0.08041 | 37864 ft | 458 kts | 184° |
| 2026-04-21 10:42 | 9.71261 | -0.08093 | 37864 ft | 458 kts | 184° |
| 2026-04-21 10:43 | 9.64927 | -0.08145 | 37868 ft | 458 kts | 184° |
| 2026-04-21 10:43 | 9.58553 | -0.08196 | 37870 ft | 458 kts | 184° |
| 2026-04-21 10:44 | 9.52174 | -0.08249 | 37869 ft | 458 kts | 184° |
| 2026-04-21 10:44 | 9.45796 | -0.08300 | 37869 ft | 458 kts | 184° |
| 2026-04-21 10:45 | 9.39424 | -0.08352 | 37867 ft | 458 kts | 184° |
| 2026-04-21 10:45 | 9.33057 | -0.08403 | 37869 ft | 457 kts | 184° |
| 2026-04-21 10:46 | 9.26692 | -0.08456 | 37869 ft | 457 kts | 184° |
| 2026-04-21 10:46 | 9.20366 | -0.08507 | 37869 ft | 457 kts | 184° |
| 2026-04-21 10:47 | 9.13997 | -0.08559 | 37869 ft | 457 kts | 184° |
| 2026-04-21 10:47 | 9.07637 | -0.08611 | 37869 ft | 457 kts | 184° |
| 2026-04-21 10:48 | 9.01276 | -0.08662 | 37868 ft | 457 kts | 184° |
| 2026-04-21 10:48 | 8.94918 | -0.08713 | 37868 ft | 457 kts | 184° |
| 2026-04-21 10:49 | 8.88559 | -0.08765 | 37867 ft | 457 kts | 184° |
| 2026-04-21 10:49 | 8.82201 | -0.08816 | 37868 ft | 457 kts | 184° |
| 2026-04-21 10:50 | 8.76906 | -0.08859 | 37868 ft | 457 kts | 184° |
| 2026-04-21 10:50 | 8.69508 | -0.08919 | 37870 ft | 457 kts | 183° |
| 2026-04-21 10:51 | 8.63154 | -0.08970 | 37872 ft | 456 kts | 183° |
| 2026-04-21 10:51 | 8.56805 | -0.09022 | 37872 ft | 456 kts | 183° |
| 2026-04-21 10:52 | 8.50462 | -0.09074 | 37873 ft | 455 kts | 183° |
| 2026-04-21 10:52 | 8.44126 | -0.09125 | 37870 ft | 455 kts | 183° |
| 2026-04-21 10:53 | 8.37837 | -0.09176 | 37871 ft | 455 kts | 183° |
| 2026-04-21 10:53 | 8.31507 | -0.09228 | 37874 ft | 454 kts | 182° |
| 2026-04-21 10:54 | 8.25199 | -0.09276 | 37878 ft | 452 kts | 182° |
| 2026-04-21 10:54 | 8.18915 | -0.09329 | 37878 ft | 451 kts | 182° |
| 2026-04-21 10:55 | 8.13693 | -0.09371 | 37876 ft | 451 kts | 182° |
| 2026-04-21 10:55 | 8.07415 | -0.09421 | 37876 ft | 451 kts | 182° |
| 2026-04-21 10:56 | 8.00128 | -0.09480 | 37876 ft | 450 kts | 182° |
| 2026-04-21 10:56 | 7.94871 | -0.09524 | 37867 ft | 450 kts | 182° |
| 2026-04-21 10:56 | 7.91786 | -0.09549 | 37646 ft | 444 kts | 182° |
| 2026-04-21 10:57 | 7.88723 | -0.09572 | 37259 ft | 439 kts | 182° |
| 2026-04-21 10:57 | 7.85646 | -0.09596 | 36877 ft | 446 kts | 182° |
| 2026-04-21 10:57 | 7.82524 | -0.09624 | 36460 ft | 452 kts | 182° |
| 2026-04-21 10:57 | 7.79354 | -0.09650 | 36005 ft | 458 kts | 182° |
| 2026-04-21 10:58 | 7.76165 | -0.09673 | 35561 ft | 456 kts | 182° |
| 2026-04-21 10:58 | 7.73008 | -0.09697 | 35092 ft | 453 kts | 182° |
| 2026-04-21 10:58 | 7.69848 | -0.09724 | 34543 ft | 454 kts | 183° |
| 2026-04-21 10:58 | 7.66687 | -0.09751 | 34006 ft | 454 kts | 183° |
| 2026-04-21 10:59 | 7.63523 | -0.09776 | 33413 ft | 455 kts | 183° |
| 2026-04-21 10:59 | 7.60359 | -0.09801 | 32815 ft | 455 kts | 183° |
| 2026-04-21 10:59 | 7.57191 | -0.09827 | 32229 ft | 454 kts | 182° |
| 2026-04-21 10:59 | 7.54033 | -0.09852 | 31661 ft | 453 kts | 182° |
| 2026-04-21 11:00 | 7.50922 | -0.09877 | 31104 ft | 452 kts | 182° |
| 2026-04-21 11:00 | 7.47779 | -0.09902 | 30555 ft | 451 kts | 182° |
| 2026-04-21 11:00 | 7.44648 | -0.09927 | 30017 ft | 449 kts | 182° |
| 2026-04-21 11:00 | 7.41531 | -0.09952 | 29399 ft | 448 kts | 182° |
| 2026-04-21 11:01 | 7.38417 | -0.09977 | 28782 ft | 446 kts | 181° |
| 2026-04-21 11:01 | 7.35315 | -0.10002 | 28178 ft | 444 kts | 181° |
| 2026-04-21 11:01 | 7.32240 | -0.10027 | 27601 ft | 441 kts | 181° |
| 2026-04-21 11:02 | 7.26182 | -0.10076 | 26769 ft | 430 kts | 181° |
| 2026-04-21 11:02 | 7.23210 | -0.10100 | 26398 ft | 424 kts | 181° |
| 2026-04-21 11:02 | 7.20278 | -0.10122 | 26164 ft | 419 kts | 181° |
| 2026-04-21 11:02 | 7.17354 | -0.10147 | 25930 ft | 419 kts | 181° |
| 2026-04-21 11:03 | 7.14442 | -0.10173 | 25702 ft | 418 kts | 181° |
| 2026-04-21 11:03 | 7.11535 | -0.10196 | 25477 ft | 417 kts | 180° |
| 2026-04-21 11:03 | 7.08632 | -0.10218 | 25160 ft | 418 kts | 180° |
| 2026-04-21 11:03 | 7.05720 | -0.10241 | 24858 ft | 418 kts | 180° |
| 2026-04-21 11:04 | 7.02810 | -0.10264 | 24550 ft | 418 kts | 180° |
| 2026-04-21 11:04 | 6.99904 | -0.10289 | 24247 ft | 418 kts | 180° |
| 2026-04-21 11:04 | 6.97038 | -0.10312 | 23951 ft | 417 kts | 180° |
| 2026-04-21 11:04 | 6.94137 | -0.10335 | 23654 ft | 416 kts | 180° |
| 2026-04-21 11:05 | 6.91239 | -0.10358 | 23334 ft | 416 kts | 180° |
| 2026-04-21 11:05 | 6.88351 | -0.10381 | 22975 ft | 415 kts | 180° |
| 2026-04-21 11:05 | 6.85467 | -0.10404 | 22621 ft | 414 kts | 180° |
| 2026-04-21 11:05 | 6.82583 | -0.10427 | 22272 ft | 413 kts | 180° |
| 2026-04-21 11:06 | 6.79707 | -0.10451 | 21929 ft | 413 kts | 180° |
| 2026-04-21 11:06 | 6.76829 | -0.10473 | 21586 ft | 412 kts | 180° |
| 2026-04-21 11:06 | 6.73997 | -0.10495 | 21247 ft | 403 kts | 180° |
| 2026-04-21 11:06 | 6.71195 | -0.10516 | 20908 ft | 399 kts | 180° |
| 2026-04-21 11:07 | 6.68439 | -0.10541 | 20579 ft | 394 kts | 180° |
| 2026-04-21 11:07 | 6.65706 | -0.10565 | 20247 ft | 390 kts | 180° |
| 2026-04-21 11:07 | 6.63010 | -0.10524 | 19915 ft | 386 kts | 174° |
| 2026-04-21 11:07 | 6.60339 | -0.10250 | 19441 ft | 385 kts | 173° |
| 2026-04-21 11:08 | 6.57705 | -0.09978 | 18841 ft | 386 kts | 174° |
| 2026-04-21 11:08 | 6.55051 | -0.09721 | 18320 ft | 384 kts | 174° |
| 2026-04-21 11:08 | 6.52394 | -0.09465 | 17763 ft | 382 kts | 174° |
| 2026-04-21 11:08 | 6.49755 | -0.09202 | 17186 ft | 380 kts | 173° |
| 2026-04-21 11:09 | 6.47129 | -0.08939 | 16618 ft | 378 kts | 173° |
| 2026-04-21 11:09 | 6.44516 | -0.08682 | 16066 ft | 376 kts | 173° |
| 2026-04-21 11:09 | 6.41918 | -0.08426 | 15519 ft | 374 kts | 172° |
| 2026-04-21 11:09 | 6.39330 | -0.08170 | 14984 ft | 373 kts | 172° |
| 2026-04-21 11:10 | 6.36754 | -0.07916 | 14453 ft | 371 kts | 172° |
| 2026-04-21 11:10 | 6.34189 | -0.07662 | 13934 ft | 369 kts | 171° |
| 2026-04-21 11:10 | 6.31674 | -0.07413 | 13392 ft | 367 kts | 171° |
| 2026-04-21 11:10 | 6.29142 | -0.07163 | 12895 ft | 364 kts | 171° |
| 2026-04-21 11:11 | 6.26627 | -0.06915 | 12431 ft | 362 kts | 171° |
| 2026-04-21 11:11 | 6.24141 | -0.06645 | 12045 ft | 357 kts | 169° |
| 2026-04-21 11:11 | 6.21703 | -0.06278 | 11643 ft | 353 kts | 165° |
| 2026-04-21 11:11 | 6.19308 | -0.05835 | 11336 ft | 350 kts | 169° |
| 2026-04-21 11:12 | 6.16911 | -0.05749 | 11027 ft | 338 kts | 176° |
| 2026-04-21 11:12 | 6.14603 | -0.05753 | 10717 ft | 326 kts | 173° |
| 2026-04-21 11:12 | 6.12385 | -0.05590 | 10400 ft | 314 kts | 167° |
| 2026-04-21 11:12 | 6.10236 | -0.05299 | 10098 ft | 308 kts | 166° |
| 2026-04-21 11:13 | 6.08139 | -0.05060 | 9777 ft | 306 kts | 168° |
| 2026-04-21 11:13 | 6.06030 | -0.04876 | 9444 ft | 303 kts | 169° |
| 2026-04-21 11:13 | 6.03930 | -0.04681 | 9014 ft | 302 kts | 168° |
| 2026-04-21 11:13 | 6.01848 | -0.04470 | 8593 ft | 300 kts | 168° |
| 2026-04-21 11:14 | 5.99781 | -0.04259 | 8172 ft | 297 kts | 169° |
| 2026-04-21 11:14 | 5.97731 | -0.04087 | 7767 ft | 295 kts | 174° |
| 2026-04-21 11:14 | 5.95685 | -0.04451 | 7349 ft | 302 kts | 192° |
| 2026-04-21 11:14 | 5.93717 | -0.05153 | 6946 ft | 299 kts | 197° |
| 2026-04-21 11:15 | 5.91774 | -0.05864 | 6555 ft | 294 kts | 194° |
| 2026-04-21 11:15 | 5.89857 | -0.06467 | 6163 ft | 288 kts | 193° |
| 2026-04-21 11:15 | 5.87983 | -0.07041 | 5748 ft | 277 kts | 194° |
| 2026-04-21 11:15 | 5.86173 | -0.07621 | 5335 ft | 269 kts | 195° |
| 2026-04-21 11:16 | 5.84407 | -0.08196 | 4920 ft | 263 kts | 195° |
| 2026-04-21 11:16 | 5.82681 | -0.08750 | 4510 ft | 257 kts | 196° |
| 2026-04-21 11:16 | 5.80991 | -0.09293 | 4089 ft | 253 kts | 195° |
| 2026-04-21 11:16 | 5.79295 | -0.09642 | 3700 ft | 246 kts | 183° |
| 2026-04-21 11:17 | 5.77640 | -0.09815 | 3388 ft | 228 kts | 189° |
| 2026-04-21 11:17 | 5.76293 | -0.10215 | 3126 ft | 186 kts | 200° |
| 2026-04-21 11:17 | 5.75147 | -0.10670 | 2900 ft | 173 kts | 202° |
| 2026-04-21 11:17 | 5.74069 | -0.11124 | 2691 ft | 160 kts | 202° |
| 2026-04-21 11:18 | 5.73076 | -0.11530 | 2487 ft | 150 kts | 202° |
| 2026-04-21 11:18 | 5.72122 | -0.11924 | 2306 ft | 146 kts | 204° |
| 2026-04-21 11:18 | 5.71165 | -0.12321 | 2117 ft | 152 kts | 203° |
| 2026-04-21 11:18 | 5.70185 | -0.12726 | 1927 ft | 153 kts | 203° |
| 2026-04-21 11:19 | 5.69210 | -0.13129 | 1737 ft | 142 kts | 204° |
| 2026-04-21 11:19 | 5.68351 | -0.13484 | 1547 ft | 128 kts | 203° |
| 2026-04-21 11:19 | 5.67543 | -0.13819 | 1386 ft | 125 kts | 202° |
| 2026-04-21 11:19 | 5.66718 | -0.14159 | 1233 ft | 131 kts | 202° |
| 2026-04-21 11:20 | 5.65849 | -0.14518 | 1070 ft | 137 kts | 203° |
| 2026-04-21 11:20 | 5.64968 | -0.14882 | 926 ft | 136 kts | 203° |
| 2026-04-21 11:20 | 5.64111 | -0.15245 | 732 ft | 135 kts | 205° |
| 2026-04-21 11:20 | 5.63243 | -0.15601 | 588 ft | 133 kts | 207° |
| 2026-04-21 11:21 | 5.62371 | -0.15960 | 415 ft | 137 kts | 204° |
| 2026-04-21 11:21 | 5.61509 | -0.16315 | 257 ft | 131 kts | 204° |
| 2026-04-21 11:21 | 5.60740 | -0.16634 | 219 ft | 104 kts | 202° |
| 2026-04-21 11:21 | 5.60176 | -0.16866 | 206 ft | 62 kts | 202° |
| 2026-04-21 11:22 | 5.59985 | -0.16954 | 198 ft | 23 kts | 215° |
| 2026-04-21 11:22 | 5.59870 | -0.17072 | 199 ft | 21 kts | 232° |
| 2026-04-21 11:22 | 5.59822 | -0.17136 | 200 ft | 11 kts | 233° |
| 2026-04-21 11:22 | 5.59831 | -0.17197 | 200 ft | 11 kts | 343° |
| 2026-04-21 11:23 | 5.59919 | -0.17180 | 201 ft | 16 kts | 23° |
| 2026-04-21 11:23 | 5.60038 | -0.17131 | 204 ft | 21 kts | 21° |
| 2026-04-21 11:23 | 5.60187 | -0.17069 | 204 ft | 25 kts | 24° |
| 2026-04-21 11:23 | 5.60344 | -0.17004 | 214 ft | 23 kts | 22° |
| 2026-04-21 11:24 | 5.60495 | -0.16942 | 215 ft | 25 kts | 22° |
| 2026-04-21 11:24 | 5.60645 | -0.16882 | 215 ft | 18 kts | 21° |
| 2026-04-21 11:24 | 5.60731 | -0.16849 | 216 ft | 9 kts | 21° |
| 2026-04-21 11:24 | 5.60749 | -0.16842 | 216 ft | 0 kts | 21° |
| 2026-04-21 11:25 | 5.60752 | -0.16840 | 216 ft | 3 kts | 33° |
| 2026-04-21 11:25 | 5.60782 | -0.16825 | 216 ft | 4 kts | 331° |
| 2026-04-21 11:25 | 5.60794 | -0.16854 | 216 ft | 7 kts | 290° |
| 2026-04-21 11:26 | 5.60802 | -0.16875 | 216 ft | 3 kts | 284° |
| 2026-04-21 11:26 | 5.60793 | -0.16888 | 216 ft | 2 kts | 199° |
| 2026-04-21 11:26 | 5.60783 | -0.16892 | 216 ft | 0 kts | 203° |
| 2026-04-21 11:26 | 5.60778 | -0.16894 | 216 ft | 1 kts | 203° |
| 2026-04-21 11:27 | 5.60777 | -0.16895 | 216 ft | 0 kts | 203° |